Latest Weather Observations for Rottnest Island

IDW60901

Issued at 11:15 am WST Saturday 1 November 2014 (issued every 10 minutes, with the page automatically refreshed every 10 minutes)

About weather observations | Map of Perth area stations | Latest observations for Perth area | Other Formats
Station Details ID: 009193 Name: ROTTNEST ISLAND Lat: -32.01 Lon: 115.50 Height: 43.1 m
Data from the previous 72 hours. | See also: Recent months at Rottnest Island
Date/Time
WST
Tmp

°C
App
Tmp
°C
Dew
Point
°C
Rel
Hum
%
Delta-T

°C
Wind Press
QNH
hPa
Press
MSL
hPa
Rain
since
9 am
mm
Dir
 
Spd
km/h
Gust
km/h
Spd
kts
Gust
kts
01/11:00am 24.1 19.6 10.0 41 7.7 NE 24 33 13 18 1016.7 1016.6 0.0
01/10:30am 23.0 18.0 9.4 42 7.4 NE 26 33 14 18 1017.2 1017.1 0.0
01/10:00am 21.7 15.4 7.5 40 7.3 NE 30 37 16 20 1017.6 1017.5 0.0
01/09:30am 22.2 17.2 8.0 40 7.4 NE 24 35 13 19 1017.9 1017.8 0.0
01/09:00am 20.5 14.4 8.2 45 6.4 NE 30 43 16 23 1017.6 1017.5 0.0
01/08:30am 19.2 12.6 7.6 47 5.9 NE 32 39 17 21 1017.7 1017.6 0.0
01/08:00am 18.3 11.6 8.0 51 5.3 ENE 33 44 18 24 1017.7 1017.6 0.0
01/07:30am 17.4 10.2 7.5 52 5.0 ENE 35 48 19 26 1017.6 1017.5 0.0
01/07:13am 17.1 9.9 7.7 54 4.7 ENE 35 54 19 29 1017.4 1017.3 0.0
01/07:00am 16.8 10.4 8.5 58 4.2 ENE 32 48 17 26 1017.4 1017.3 0.0
01/06:30am 16.1 8.5 7.6 57 4.3 ENE 37 50 20 27 1017.3 1017.2 0.0
01/06:00am 15.9 8.3 7.4 57 4.2 ENE 37 50 20 27 1017.2 1017.1 0.0
01/05:39am 15.9 9.0 7.4 57 4.2 ENE 33 54 18 29 1017.1 1017.0 0.0
01/05:30am 16.0 8.8 7.5 57 4.2 ENE 35 50 19 27 1017.0 1016.9 0.0
01/05:13am 16.1 9.5 7.6 57 4.3 ENE 32 50 17 27 1016.8 1016.7 0.0
01/05:00am 16.2 9.4 7.7 57 4.3 E 33 48 18 26 1016.7 1016.6 0.0
01/04:30am 16.3 9.5 7.8 57 4.3 E 33 43 18 23 1016.4 1016.3 0.0
01/04:00am 16.2 9.6 7.9 58 4.2 E 32 44 17 24 1016.4 1016.3 0.0
01/03:30am 16.3 11.3 8.0 58 4.2 E 24 35 13 19 1016.6 1016.5 0.0
01/03:00am 16.2 11.6 8.2 59 4.1 E 22 35 12 19 1016.6 1016.5 0.0
01/02:30am 16.5 11.4 9.2 62 3.8 E 26 37 14 20 1016.6 1016.5 0.0
01/02:00am 16.2 12.2 10.5 69 3.0 E 22 30 12 16 1016.4 1016.3 0.0
01/01:30am 16.2 13.2 12.0 76 2.3 ESE 19 22 10 12 1016.4 1016.3 0.0
01/01:00am 16.3 14.2 12.5 78 2.1 SE 15 20 8 11 1016.5 1016.4 0.0
01/12:30am 17.5 15.0 13.4 77 2.3 SSE 19 24 10 13 1016.6 1016.5 0.0
01/12:00am 17.5 15.1 13.8 79 2.1 SSE 19 24 10 13 1016.8 1016.7 0.0
 
Date/Time
WST
Tmp

°C
App
Tmp
°C
Dew
Point
°C
Rel
Hum
%
Delta-T

°C
Wind Press
QNH
hPa
Press
MSL
hPa
Rain
since
9 am
mm
Dir
 
Spd
km/h
Gust
km/h
Spd
kts
Gust
kts
31/11:30pm 17.7 14.9 14.2 80 2.0 S 22 26 12 14 1017.0 1016.9 0.0
31/11:00pm 17.5 14.4 13.4 77 2.3 S 22 26 12 14 1017.2 1017.1 0.0
31/10:30pm 17.6 14.1 13.3 76 2.4 S 24 30 13 16 1017.5 1017.4 0.0
31/10:00pm 17.7 14.6 13.4 76 2.4 S 22 28 12 15 1017.6 1017.5 0.0
31/09:30pm 17.4 14.3 13.5 78 2.2 S 22 28 12 15 1017.9 1017.8 0.0
31/09:00pm 17.5 14.0 13.4 77 2.3 S 24 30 13 16 1017.9 1017.8 0.0
31/08:30pm 17.5 13.9 13.0 75 2.5 S 24 30 13 16 1017.8 1017.7 0.0
31/08:00pm 17.6 14.0 12.9 74 2.6 S 24 32 13 17 1017.7 1017.6 0.0
31/07:30pm 17.6 12.7 12.5 72 2.8 S 30 37 16 20 1017.3 1017.2 0.0
31/07:00pm 17.6 12.9 12.1 70 3.0 S 28 35 15 19 1017.1 1017.0 0.0
31/06:30pm 17.8 12.0 11.4 66 3.5 S 33 39 18 21 1017.0 1016.9 0.0
31/06:00pm 17.9 12.3 11.5 66 3.5 S 32 41 17 22 1016.9 1016.8 0.0
31/05:30pm 18.0 11.8 11.3 65 3.6 SSW 35 41 19 22 1016.7 1016.6 0.0
31/05:00pm 18.3 11.8 10.2 59 4.3 S 35 43 19 23 1016.3 1016.2 0.0
31/04:30pm 18.7 12.2 10.3 58 4.5 SSW 35 43 19 23 1016.3 1016.2 0.0
31/04:00pm 19.3 12.7 10.0 55 5.0 SSW 35 43 19 23 1016.2 1016.1 0.0
31/03:30pm 18.4 12.0 9.5 56 4.7 SSW 33 41 18 22 1016.0 1015.9 0.0
31/03:00pm 19.2 12.4 9.1 52 5.3 SSW 35 41 19 22 1016.1 1016.0 0.0
31/02:30pm 18.4 11.5 8.7 53 5.0 SSW 35 43 19 23 1016.2 1016.1 0.0
31/02:00pm 19.8 13.3 8.8 49 5.8 SSW 33 39 18 21 1016.4 1016.3 0.0
31/01:30pm 18.3 11.6 8.3 52 5.2 SSW 33 39 18 21 1016.8 1016.7 0.0
31/01:00pm 18.1 11.5 8.7 54 4.9 S 33 41 18 22 1017.1 1017.0 0.0
31/12:30pm 19.1 13.0 8.1 49 5.7 S 30 35 16 19 1017.3 1017.2 0.0
31/12:00pm 19.1 13.1 6.9 45 6.1 S 28 33 15 18 1017.2 1017.1 0.0
31/11:30am 19.3 13.3 7.1 45 6.2 S 28 35 15 19 1017.3 1017.2 0.0
31/11:00am 17.7 10.8 6.3 47 5.6 S 32 39 17 21 1017.4 1017.3 0.0
31/10:30am 17.8 10.3 6.3 47 5.7 S 35 44 19 24 1017.3 1017.2 0.0
31/10:00am 17.1 9.2 6.3 49 5.3 SSE 37 46 20 25 1017.4 1017.3 0.0
31/09:30am 17.1 9.4 7.2 52 5.0 SSE 37 48 20 26 1017.5 1017.4 0.0
31/09:00am 16.8 8.5 6.3 50 5.1 S 39 48 21 26 1017.2 1017.1 0.4
31/08:30am 16.6 8.2 7.3 54 4.6 SSE 41 52 22 28 1017.2 1017.1 0.4
31/08:00am 16.0 6.7 7.5 57 4.2 SSE 46 56 25 30 1016.7 1016.6 0.4
31/07:30am 15.7 6.4 7.7 59 4.0 SSE 46 61 25 33 1016.5 1016.4 0.4
31/07:00am 15.5 6.5 9.0 65 3.3 SSE 46 59 25 32 1015.9 1015.8 0.4
31/06:30am 15.5 7.1 11.1 75 2.4 SSE 46 57 25 31 1015.5 1015.4 0.4
31/06:00am 15.7 8.5 11.9 78 2.1 SSE 41 52 22 28 1015.3 1015.2 0.4
31/05:30am 16.2 8.3 11.4 73 2.6 S 44 56 24 30 1014.7 1014.6 0.4
31/05:00am 15.8 8.2 13.6 87 1.2 S 46 56 25 30 1014.4 1014.3 0.4
31/04:30am 15.5 8.8 13.3 87 1.2 S 41 59 22 32 1013.9 1013.8 0.4
31/04:28am 15.6 9.3 13.4 87 1.2 S 39 59 21 32 1013.8 1013.7 0.4
31/04:00am 15.5 10.6 14.4 93 0.6 S 33 39 18 21 1014.0 1013.9 0.2
31/03:40am 15.6 10.7 14.3 92 0.7 S 33 52 18 28 1013.5 1013.4 0.2
31/03:30am 16.2 11.5 14.2 88 1.1 S 32 43 17 23 1013.7 1013.6 0.0
31/03:00am 17.6 13.1 12.5 72 2.8 SW 28 33 15 18 1013.7 1013.6 0.0
31/02:30am 17.4 12.4 12.1 71 2.9 WSW 30 37 16 20 1013.7 1013.6 0.0
31/02:00am 17.0 12.8 12.3 74 2.6 WSW 26 35 14 19 1013.9 1013.8 0.0
31/01:30am 17.9 13.6 11.9 68 3.3 WSW 26 32 14 17 1013.7 1013.6 0.0
31/01:00am 17.4 12.5 11.4 68 3.3 SW 28 35 15 19 1014.0 1013.9 0.0
31/12:30am 17.3 12.3 11.1 67 3.4 SW 28 35 15 19 1014.5 1014.4 0.0
31/12:00am 17.5 12.0 10.4 63 3.8 SW 30 43 16 23 1014.8 1014.7 0.0
 
Date/Time
WST
Tmp

°C
App
Tmp
°C
Dew
Point
°C
Rel
Hum
%
Delta-T

°C
Wind Press
QNH
hPa
Press
MSL
hPa
Rain
since
9 am
mm
Dir
 
Spd
km/h
Gust
km/h
Spd
kts
Gust
kts
30/11:30pm 17.4 11.7 11.2 67 3.4 SW 32 41 17 22 1014.8 1014.7 0.0
30/11:00pm 17.1 11.3 11.4 69 3.1 SW 33 41 18 22 1015.0 1014.9 0.0
30/10:30pm 17.0 11.7 11.3 69 3.1 SW 30 41 16 22 1015.2 1015.1 0.0
30/10:00pm 17.0 12.3 12.1 73 2.7 SW 28 35 15 19 1015.2 1015.1 0.0
30/09:30pm 16.1 12.9 13.0 82 1.7 SW 22 28 12 15 1015.4 1015.3 0.0
30/09:00pm 16.4 11.1 14.1 86 1.3 SW 35 48 19 26 1015.6 1015.5 0.0
30/08:55pm 17.8 13.3 12.7 72 2.8 WSW 28 48 15 26 1015.7 1015.6 0.0
30/08:30pm 17.7 13.6 11.3 66 3.5 SW 24 32 13 17 1015.5 1015.4 0.0
30/08:00pm 17.9 12.3 11.5 66 3.5 SW 32 41 17 22 1015.4 1015.3 0.0
30/07:30pm 17.7 12.3 10.8 64 3.7 SW 30 35 16 19 1015.1 1015.0 0.0
30/07:00pm 17.9 12.3 10.3 61 4.1 SW 30 35 16 19 1014.9 1014.8 0.0
30/06:30pm 17.8 12.5 9.7 59 4.3 SW 28 35 15 19 1014.7 1014.6 0.0
30/06:00pm 17.9 12.8 10.5 62 4.0 SW 28 37 15 20 1014.6 1014.5 0.0
30/05:30pm 18.0 11.9 9.6 58 4.4 SW 32 46 17 25 1014.4 1014.3 0.0
30/05:00pm 18.1 12.5 11.4 65 3.7 SW 32 39 17 21 1014.1 1014.0 0.0
30/04:30pm 18.1 12.4 11.0 63 3.8 SW 32 41 17 22 1014.3 1014.2 0.0
30/04:00pm 18.3 13.3 10.9 62 4.0 SW 28 35 15 19 1014.2 1014.1 0.0
30/03:30pm 19.0 13.4 10.3 57 4.7 WSW 30 37 16 20 1014.2 1014.1 0.0
30/03:00pm 19.3 13.4 10.3 56 4.8 SW 32 39 17 21 1014.0 1013.9 0.0
30/02:30pm 19.6 14.3 10.0 54 5.1 SW 28 35 15 19 1014.0 1013.9 0.0
30/02:00pm 20.5 14.9 10.0 51 5.7 WSW 30 37 16 20 1014.1 1014.0 0.0
30/01:30pm 20.4 14.9 10.5 53 5.4 SW 30 35 16 19 1014.2 1014.1 0.0
30/01:00pm 20.1 14.7 10.8 55 5.1 SW 30 35 16 19 1014.2 1014.1 0.0
30/12:30pm 21.3 16.3 11.1 52 5.6 SW 28 37 15 20 1014.3 1014.2 0.0
30/12:00pm 20.1 15.5 11.1 56 4.9 SSW 26 33 14 18 1014.3 1014.2 0.0
30/11:30am 19.6 15.3 11.9 61 4.3 SSW 26 33 14 18 1014.5 1014.4 0.0
30/11:00am 20.0 15.5 11.5 58 4.7 SSW 26 33 14 18 1014.5 1014.4 0.0
30/10:30am 19.4 14.8 11.2 59 4.5 SSW 26 32 14 17 1014.4 1014.3 0.0
30/10:00am 18.9 14.7 11.0 60 4.3 SSW 24 30 13 16 1014.6 1014.5 0.0
30/09:30am 18.4 14.4 11.9 66 3.6 SSW 24 30 13 16 1014.7 1014.6 0.0
30/09:00am 18.0 13.7 12.2 69 3.2 SSW 26 35 14 19 1014.8 1014.7 0.0
30/08:30am 17.9 13.9 13.0 73 2.8 SSW 26 35 14 19 1014.7 1014.6 0.0
30/08:00am 17.3 13.8 13.4 78 2.2 SSW 24 30 13 16 1014.6 1014.5 0.0
30/07:30am 17.2 13.4 13.5 79 2.1 SSW 26 32 14 17 1014.3 1014.2 0.0
30/07:00am 16.9 12.5 13.0 78 2.2 S 28 33 15 18 1014.2 1014.1 0.0
30/06:30am 16.8 11.5 13.1 79 2.1 S 33 39 18 21 1014.1 1014.0 0.0
30/06:00am 16.7 10.9 12.8 78 2.2 S 35 41 19 22 1013.8 1013.7 0.0
30/05:30am 16.6 10.8 12.8 78 2.1 S 35 43 19 23 1013.6 1013.5 0.0
30/05:00am 16.5 10.4 13.0 80 2.0 S 37 46 20 25 1013.7 1013.6 0.0
30/04:30am 16.6 10.2 13.1 80 2.0 S 39 46 21 25 1013.3 1013.2 0.0
30/04:00am 16.6 11.0 13.3 81 1.9 S 35 43 19 23 1013.3 1013.2 0.0
30/03:30am 16.5 10.2 13.4 82 1.7 SSW 39 46 21 25 1013.2 1013.1 0.0
30/03:00am 16.6 10.3 13.5 82 1.7 S 39 46 21 25 1013.4 1013.3 0.0
30/02:30am 16.7 10.1 13.8 83 1.6 S 41 54 22 29 1013.1 1013.0 0.0
30/02:00am 16.8 10.3 13.9 83 1.6 S 41 48 22 26 1013.3 1013.2 0.0
30/01:30am 16.8 10.7 14.1 84 1.5 S 39 48 21 26 1013.2 1013.1 0.0
30/01:00am 16.6 10.8 13.9 84 1.5 S 37 48 20 26 1013.2 1013.1 0.0
30/12:30am 16.8 10.3 13.9 83 1.6 S 41 52 22 28 1013.5 1013.4 0.0
30/12:00am 17.1 10.4 13.4 79 2.1 S 41 52 22 28 1013.7 1013.6 0.0
 
Date/Time
WST
Tmp

°C
App
Tmp
°C
Dew
Point
°C
Rel
Hum
%
Delta-T

°C
Wind Press
QNH
hPa
Press
MSL
hPa
Rain
since
9 am
mm
Dir
 
Spd
km/h
Gust
km/h
Spd
kts
Gust
kts
29/11:30pm 17.4 11.3 14.1 81 1.9 S 39 46 21 25 1013.8 1013.7 0.0
29/11:00pm 17.8 12.3 14.7 82 1.8 SSW 37 46 20 25 1014.1 1014.0 0.0
29/10:30pm 17.9 11.7 14.8 82 1.8 SSW 41 52 22 28 1014.0 1013.9 0.0
29/10:00pm 18.0 12.0 14.5 80 2.0 SSW 39 50 21 27 1013.7 1013.6 0.0
29/09:30pm 18.0 11.3 14.7 81 1.9 SSW 43 50 23 27 1013.7 1013.6 0.0
29/09:00pm 18.0 11.7 14.5 80 2.0 SSW 41 50 22 27 1013.6 1013.5 0.0
29/08:30pm 18.0 11.7 14.7 81 1.9 SSW 41 50 22 27 1013.3 1013.2 0.0
29/08:00pm 18.0 12.6 14.9 82 1.8 SSW 37 46 20 25 1013.3 1013.2 0.0
29/07:30pm 18.0 13.5 14.9 82 1.8 SSW 32 41 17 22 1013.4 1013.3 0.0
29/07:00pm 18.2 13.4 14.7 80 2.0 SSW 33 43 18 23 1013.3 1013.2 0.0
29/06:30pm 18.4 13.5 15.3 82 1.8 SSW 35 46 19 25 1013.0 1012.9 0.0
29/06:00pm 19.0 14.1 15.3 79 2.2 SSW 35 46 19 25 1012.3 1012.2 0.0
29/05:30pm 19.5 14.6 15.2 76 2.5 SSW 35 43 19 23 1012.3 1012.2 0.0
29/05:00pm 19.9 14.7 15.5 76 2.6 SSW 37 48 20 26 1012.4 1012.3 0.0
29/04:30pm 19.0 13.3 15.1 78 2.3 SSW 39 50 21 27 1012.5 1012.4 0.0
29/04:00pm 19.7 15.2 15.4 76 2.5 SSW 33 46 18 25 1012.6 1012.5 0.0
29/03:30pm 20.4 15.1 15.4 73 3.0 SSW 37 48 20 26 1012.4 1012.3 0.0
29/03:00pm 20.4 14.7 15.2 72 3.1 SSW 39 48 21 26 1012.4 1012.3 0.0
29/02:30pm 20.1 14.4 15.3 74 2.8 SSW 39 46 21 25 1012.3 1012.2 0.0
29/02:00pm 19.6 13.8 15.0 75 2.7 S 39 48 21 26 1012.7 1012.6 0.0
29/01:30pm 20.2 14.5 15.2 73 3.0 S 39 46 21 25 1013.0 1012.9 0.0
29/01:00pm 20.4 14.8 15.4 73 3.0 S 39 46 21 25 1012.9 1012.8 0.0
29/12:30pm 20.3 13.9 15.3 73 3.0 S 43 52 23 28 1012.6 1012.5 0.0
29/12:00pm 19.7 12.6 15.1 75 2.7 S 46 54 25 29 1012.8 1012.7 0.0
29/11:30am 20.0 12.9 15.0 73 2.9 S 46 54 25 29 1013.4 1013.3 0.0

Latest Capital City Observations: Canberra | Sydney | Melbourne | Brisbane | Adelaide | Perth | Hobart | Darwin

Other Formats:

Comma delimited format used in spreadsheet applications
http://www.bom.gov.au/fwo/IDW60901/IDW60901.94602.axf

JavaScript Object Notation format (JSON) in row-major order
http://www.bom.gov.au/fwo/IDW60901/IDW60901.94602.json